Galva, IL (61434)

11:50 AM CST on March 03, 2015 (GMT -0600)
APRSWXNET Kewanee IL US | Change Station
CLOSE
Current Station
Personal Weather Station
Location: Kewanee, IL
Elevation: 853 ft
Nearby Weather Stations
Active Advisory: Winter Weather Advisory

Elev 853 ft 41.20 °N, 89.96 °W | Updated 59 minutes ago

Fog
Fog
33 °F
Feels Like 25 °F
N
10
Wind Variable Wind from South
Gusts 15.0 mph

Today
High -- | Low -- °F
--% Chance of Precip.
Yesterday
High -- | Low -- °F
Precip. -- in
6:31 AM 5:53 PM
Waxing Gibbous, 96% visible
Pressure 29.71 in
Visibility 1.5 miles
Clouds Overcast 300 ft
Windchill 25 °F
Dew Point 32 °F
Humidity 98%
Rainfall 0.00 in
Snow Depth Not available.
UV 2 out of 12
Pollen .50 out of 12
Air Quality Not available.
Flu Activity Not available.
METAR KGBG 031735Z AUTO 21013KT 1 1/2SM BR OVC003 00/00 A2971 RMK AO2 T00020000

More Conditions Fewer Conditions

Pressure 29.71 in
Visibility 1.5 miles
Clouds Overcast 300 ft
Windchill 25 °F
Dew Point 32 °F
Humidity 98%
Rainfall 0.00 in
Snow Depth Not available.
UV 2 out of 12
Pollen .50 out of 12
Air Quality Not available.
Flu Activity Not available.
METAR KGBG 031735Z AUTO 21013KT 1 1/2SM BR OVC003 00/00 A2971 RMK AO2 T00020000

More Conditions Fewer Conditions

10-Day Weather Forecast

Almanac

Astronomy

Mar. 03, 2015 Rise Set
Actual Time
Civil Twilight
Nautical Twilight
Astronomical Twilight
Moon
Length of Visible Light
Length of Day
Tomorrow will be .
, % of the Moon is Illuminated

Today's Extremes

State Highs State Lows

Community

WunderPhotos

Upload Photos

1,802,186 photos uploaded!

WunderBlogs® & News

Nearby

Air Quality

  Air Quality AQ Index Pollutant
Not available.

Snow Depth

Station Depth Elevation

Earthquake Activity

City Distance Mag. Time & Date
Minimum magnitude displayed is 2.5.

Coastal Water Temperatures

Place Temperature

Nearby Weather Stations

Winter Weather Advisory
Statement as of 9:08 AM CST on March 03, 2015

... Winter Weather Advisory in effect until noon CST today...

The National Weather Service in Quad Cities has issued a Winter
Weather Advisory for mixed precipitation... which is in effect
until noon CST today.

* Timing... through noon.

* Snow accumulations... a trace.

* Ice accumulations... a trace.

* Winds... south winds 10 to 20 mph with gusts up to 25 mph.

* Temperatures... rising into the lower 30s.

* Impacts... the lingering light snow or freezing drizzle may
result in hazardous travel this morning.

Precautionary/preparedness actions...

A Winter Weather Advisory means that periods of snow... sleet... or
freezing rain will cause travel difficulties. Be prepared for
slippery roads and limited visibilities... and be careful while
driving.